createdAt,value
2018-05-14T00:01:10.451Z,99.90
2018-05-14T00:03:37.130Z,99.90
2018-05-14T00:06:04.532Z,99.90
2018-05-14T00:08:31.186Z,99.90
2018-05-14T00:10:57.884Z,99.90
2018-05-14T00:13:24.547Z,99.90
2018-05-14T00:15:51.290Z,99.90
2018-05-14T00:18:17.948Z,99.90
2018-05-14T00:20:44.594Z,99.90
2018-05-14T00:23:11.267Z,99.90
2018-05-14T00:25:37.953Z,99.90
2018-05-14T00:28:04.638Z,99.90
2018-05-14T00:30:32.068Z,99.90
2018-05-14T00:33:00.464Z,99.90
2018-05-14T00:35:27.204Z,99.90
2018-05-14T00:37:54.688Z,99.90
2018-05-14T00:40:21.495Z,99.90
2018-05-14T00:42:48.884Z,99.90
2018-05-14T00:45:15.595Z,99.90
2018-05-14T00:47:43.018Z,99.90
2018-05-14T00:50:09.823Z,99.90
2018-05-14T00:52:36.664Z,99.90
2018-05-14T00:55:15.386Z,99.90
2018-05-14T00:57:42.056Z,99.90
2018-05-14T01:00:08.828Z,99.90
2018-05-14T01:02:36.321Z,99.90
2018-05-14T01:05:03.136Z,99.90
2018-05-14T01:07:30.553Z,99.90
2018-05-14T01:09:57.267Z,99.90
2018-05-14T01:12:23.937Z,99.90
2018-05-14T01:14:50.635Z,99.90
2018-05-14T01:17:17.507Z,99.90
2018-05-14T01:19:44.217Z,99.90
2018-05-14T01:22:10.886Z,99.90
2018-05-14T01:24:37.703Z,99.90
2018-05-14T01:27:04.417Z,99.90
2018-05-14T01:29:32.224Z,99.90
2018-05-14T01:31:58.845Z,99.90
2018-05-14T01:34:25.504Z,99.90
2018-05-14T01:36:52.184Z,99.90
2018-05-14T01:39:18.836Z,99.90
2018-05-14T01:41:46.230Z,99.90
2018-05-14T01:44:12.904Z,99.90
2018-05-14T01:46:39.554Z,99.90
2018-05-14T01:49:07.110Z,99.90
2018-05-14T01:51:33.954Z,99.90
2018-05-14T01:54:01.354Z,99.90
2018-05-14T01:56:28.025Z,99.90
2018-05-14T01:58:54.654Z,99.90
2018-05-14T02:01:21.391Z,99.90
2018-05-14T02:03:48.071Z,99.90
2018-05-14T02:06:15.487Z,99.90
2018-05-14T02:08:42.188Z,99.90
2018-05-14T02:11:08.886Z,99.90
2018-05-14T02:13:35.632Z,99.90
2018-05-14T02:16:02.332Z,99.90
2018-05-14T02:18:28.922Z,99.90
2018-05-14T02:20:56.325Z,99.90
2018-05-14T02:23:23.016Z,99.90
2018-05-14T02:25:49.663Z,99.90
2018-05-14T02:28:17.097Z,99.90
2018-05-14T02:30:43.704Z,99.90
2018-05-14T02:33:10.335Z,99.90
2018-05-14T02:35:36.986Z,99.90
2018-05-14T02:38:03.614Z,99.90
2018-05-14T02:40:30.336Z,99.90
2018-05-14T02:42:56.945Z,99.90
2018-05-14T02:45:24.384Z,99.90
2018-05-14T02:47:51.873Z,99.90
2018-05-14T02:50:18.510Z,99.90
2018-05-14T02:52:45.189Z,99.90
2018-05-14T02:55:11.999Z,99.90
2018-05-14T02:57:38.705Z,99.90
2018-05-14T03:00:06.154Z,99.90
2018-05-14T03:02:32.822Z,99.90
2018-05-14T03:04:59.572Z,99.90
2018-05-14T03:07:26.190Z,99.90
2018-05-14T03:09:53.627Z,99.90
2018-05-14T03:12:20.736Z,99.90
2018-05-14T03:14:47.416Z,99.90
2018-05-14T03:17:15.029Z,99.90
2018-05-14T03:19:41.665Z,99.90
2018-05-14T03:22:08.298Z,99.90
2018-05-14T03:24:34.958Z,99.90
2018-05-14T03:27:01.620Z,99.90
2018-05-14T03:29:28.279Z,99.90
2018-05-14T03:31:54.898Z,99.90
2018-05-14T03:34:22.303Z,99.90
2018-05-14T03:36:48.940Z,99.90
2018-05-14T03:39:15.571Z,99.90
2018-05-14T03:41:42.262Z,99.90
2018-05-14T03:44:08.899Z,99.90
2018-05-14T03:46:35.589Z,99.90
2018-05-14T03:49:02.266Z,99.90
2018-05-14T03:51:28.941Z,99.90
2018-05-14T03:53:55.609Z,99.90
2018-05-14T03:56:22.280Z,99.90
2018-05-14T03:59:01.006Z,99.90
2018-05-14T04:01:39.913Z,99.90
2018-05-14T04:04:19.553Z,99.90
2018-05-14T04:06:47.111Z,99.90
2018-05-14T04:09:13.822Z,99.90
2018-05-14T04:11:41.387Z,99.90
2018-05-14T04:14:08.056Z,99.90
2018-05-14T04:16:34.740Z,99.90
2018-05-14T04:19:01.854Z,99.90
2018-05-14T04:21:28.496Z,99.90
2018-05-14T04:23:55.133Z,99.90
2018-05-14T04:26:21.818Z,99.90
2018-05-14T04:28:48.415Z,99.90
2018-05-14T04:31:15.821Z,99.90
2018-05-14T04:33:42.515Z,99.90
2018-05-14T04:36:09.907Z,99.90
2018-05-14T04:38:36.530Z,99.90
2018-05-14T04:41:03.608Z,99.90
2018-05-14T04:43:31.735Z,99.90
2018-05-14T04:45:59.125Z,99.90
2018-05-14T04:48:25.833Z,99.90
2018-05-14T04:50:53.383Z,99.90
2018-05-14T04:53:20.826Z,99.90
2018-05-14T04:55:47.443Z,99.90
2018-05-14T04:58:14.274Z,99.90
2018-05-14T05:00:40.992Z,99.90
2018-05-14T05:03:07.637Z,99.90
2018-05-14T05:05:34.488Z,99.90
2018-05-14T05:08:01.133Z,99.90
2018-05-14T05:10:27.821Z,99.90
2018-05-14T05:12:54.484Z,99.90
2018-05-14T05:15:21.330Z,99.90
2018-05-14T05:17:47.977Z,99.90
2018-05-14T05:20:14.609Z,99.90
2018-05-14T05:22:41.281Z,99.90
2018-05-14T05:25:07.887Z,99.90
2018-05-14T05:27:34.819Z,99.90
2018-05-14T05:30:01.563Z,99.90
2018-05-14T05:32:28.210Z,99.90
2018-05-14T05:34:54.900Z,99.90
2018-05-14T05:37:21.590Z,99.60
2018-05-14T05:39:48.315Z,98.70
2018-05-14T05:42:14.947Z,98.00
2018-05-14T05:44:41.694Z,97.30
2018-05-14T05:47:08.362Z,96.80
2018-05-14T05:49:35.184Z,96.30
2018-05-14T05:52:01.885Z,96.00
2018-05-14T05:54:28.541Z,95.60
2018-05-14T05:56:55.226Z,94.80
2018-05-14T05:59:21.860Z,94.30
2018-05-14T06:01:48.670Z,93.60
2018-05-14T06:04:15.282Z,93.10
2018-05-14T06:06:42.670Z,92.30
2018-05-14T06:09:09.399Z,92.20
2018-05-14T06:11:36.465Z,92.00
2018-05-14T06:14:03.359Z,91.40
2018-05-14T06:16:29.988Z,90.80
2018-05-14T06:18:56.636Z,90.80
2018-05-14T06:21:24.064Z,90.10
2018-05-14T06:23:50.695Z,90.10
2018-05-14T06:26:17.312Z,89.90
2018-05-14T06:28:43.969Z,89.30
2018-05-14T06:31:10.796Z,88.70
2018-05-14T06:33:37.441Z,87.40
2018-05-14T06:36:04.120Z,87.40
2018-05-14T06:38:30.888Z,87.00
2018-05-14T06:40:57.516Z,85.60
2018-05-14T06:43:24.949Z,83.10
2018-05-14T06:45:51.577Z,82.10
2018-05-14T06:48:18.239Z,82.80
2018-05-14T06:50:44.914Z,82.40
2018-05-14T06:53:11.565Z,80.40
2018-05-14T06:55:38.264Z,79.90
2018-05-14T06:58:04.903Z,79.10
2018-05-14T07:00:31.512Z,78.90
2018-05-14T07:02:58.146Z,78.40
2018-05-14T07:05:24.802Z,77.80
2018-05-14T07:07:52.191Z,76.20
2018-05-14T07:10:19.035Z,76.10
2018-05-14T07:12:45.733Z,75.10
2018-05-14T07:15:13.103Z,74.20
2018-05-14T07:17:40.199Z,74.20
2018-05-14T07:20:06.849Z,74.10
2018-05-14T07:22:33.504Z,74.30
2018-05-14T07:25:00.156Z,74.70
2018-05-14T07:27:27.534Z,72.90
2018-05-14T07:29:54.705Z,72.50
2018-05-14T07:32:21.322Z,72.00
2018-05-14T07:34:47.955Z,72.60
2018-05-14T07:37:14.625Z,73.60
2018-05-14T07:39:41.315Z,72.00
2018-05-14T07:42:08.793Z,69.80
2018-05-14T07:44:35.442Z,69.10
2018-05-14T07:47:02.111Z,69.30
2018-05-14T07:49:28.738Z,69.10
2018-05-14T07:51:55.378Z,68.60
2018-05-14T07:54:22.089Z,68.40
2018-05-14T07:56:48.751Z,67.80
2018-05-14T07:59:15.531Z,67.20
2018-05-14T08:01:42.989Z,65.70
2018-05-14T08:04:10.355Z,65.40
2018-05-14T08:06:36.994Z,64.90
2018-05-14T08:09:03.715Z,65.30
2018-05-14T08:11:30.413Z,64.70
2018-05-14T08:13:57.116Z,64.70
2018-05-14T08:16:23.881Z,64.60
2018-05-14T08:18:50.611Z,64.90
2018-05-14T08:21:17.251Z,64.60
2018-05-14T08:23:43.932Z,63.60
2018-05-14T08:26:10.590Z,64.10
2018-05-14T08:28:38.186Z,64.10
2018-05-14T08:31:04.842Z,63.40
2018-05-14T08:33:31.521Z,61.60
2018-05-14T08:35:58.226Z,62.10
2018-05-14T08:38:24.912Z,61.70
2018-05-14T08:40:51.595Z,60.10
2018-05-14T08:43:18.241Z,60.50
2018-05-14T08:45:44.891Z,60.20
2018-05-14T08:48:11.513Z,59.60
2018-05-14T08:50:38.196Z,59.40
2018-05-14T08:53:05.604Z,59.00
2018-05-14T08:55:32.281Z,58.10
2018-05-14T08:57:59.687Z,57.80
2018-05-14T09:00:26.347Z,57.80
2018-05-14T09:02:53.032Z,57.50
2018-05-14T09:05:20.555Z,57.20
2018-05-14T09:07:47.136Z,57.90
2018-05-14T09:10:13.886Z,56.80
2018-05-14T09:12:40.689Z,56.00
2018-05-14T09:15:07.321Z,55.70
2018-05-14T09:17:35.466Z,55.50
2018-05-14T09:20:02.147Z,55.20
2018-05-14T09:22:29.567Z,54.10
2018-05-14T09:24:56.197Z,53.70
2018-05-14T09:27:22.877Z,54.20
2018-05-14T09:29:49.502Z,53.90
2018-05-14T09:32:16.166Z,53.90
2018-05-14T09:34:43.615Z,53.50
2018-05-14T09:37:11.013Z,53.40
2018-05-14T09:39:37.701Z,53.30
2018-05-14T09:42:05.165Z,53.00
2018-05-14T09:44:32.603Z,52.70
2018-05-14T09:46:59.238Z,52.60
2018-05-14T09:49:25.877Z,52.70
2018-05-14T09:51:52.533Z,52.60
2018-05-14T09:54:19.474Z,51.90
2018-05-14T09:56:46.898Z,51.60
2018-05-14T09:59:13.553Z,51.50
2018-05-14T10:01:40.356Z,50.90
2018-05-14T10:04:06.995Z,50.70
2018-05-14T10:06:33.651Z,50.60
2018-05-14T10:09:00.302Z,50.30
2018-05-14T10:11:26.969Z,50.00
2018-05-14T10:13:53.631Z,49.80
2018-05-14T10:16:20.332Z,49.10
2018-05-14T10:18:47.171Z,48.60
2018-05-14T10:21:13.851Z,48.30
2018-05-14T10:23:40.561Z,48.30
2018-05-14T10:26:08.045Z,47.50
2018-05-14T10:28:34.641Z,47.00
2018-05-14T10:31:01.276Z,47.80
2018-05-14T10:33:27.928Z,47.10
2018-05-14T10:35:54.803Z,47.00
2018-05-14T10:38:22.356Z,46.50
2018-05-14T10:40:49.842Z,46.20
2018-05-14T10:43:17.244Z,45.40
2018-05-14T10:45:44.724Z,44.80
2018-05-14T10:48:11.361Z,43.70
2018-05-14T10:50:38.006Z,44.70
2018-05-14T10:53:04.666Z,43.90
2018-05-14T10:55:31.329Z,43.60
2018-05-14T10:57:59.510Z,41.80
2018-05-14T11:00:26.134Z,41.40
2018-05-14T11:02:52.824Z,42.50
2018-05-14T11:05:19.487Z,42.50
2018-05-14T11:07:46.166Z,41.10
2018-05-14T11:10:12.834Z,41.40
2018-05-14T11:12:39.919Z,41.70
2018-05-14T11:15:06.596Z,41.60
2018-05-14T11:17:33.223Z,40.60
2018-05-14T11:20:00.013Z,40.60
2018-05-14T11:22:26.655Z,40.20
2018-05-14T11:24:53.523Z,39.90
2018-05-14T11:27:20.338Z,39.40
2018-05-14T11:29:46.994Z,39.40
2018-05-14T11:32:13.842Z,39.00
2018-05-14T11:34:40.517Z,39.20
2018-05-14T11:37:07.187Z,38.90
2018-05-14T11:39:34.753Z,39.10
2018-05-14T11:42:01.418Z,39.10
2018-05-14T11:44:28.045Z,38.70
2018-05-14T11:46:55.093Z,38.70
2018-05-14T11:49:21.713Z,38.40
2018-05-14T11:51:48.359Z,38.70
2018-05-14T11:54:15.089Z,38.50
2018-05-14T11:56:41.844Z,37.20
2018-05-14T11:59:09.166Z,37.80
2018-05-14T12:01:36.587Z,37.10
2018-05-14T12:04:03.215Z,36.80
2018-05-14T12:06:30.037Z,37.30
2018-05-14T12:08:56.672Z,37.60
2018-05-14T12:11:23.303Z,37.30
2018-05-14T12:13:49.976Z,36.60
2018-05-14T12:16:16.645Z,36.70
2018-05-14T12:18:44.029Z,36.70
2018-05-14T12:21:10.732Z,36.60
2018-05-14T12:23:38.170Z,36.50
2018-05-14T12:26:04.856Z,36.50
2018-05-14T12:28:31.502Z,36.20
2018-05-14T12:30:58.168Z,36.20
2018-05-14T12:33:24.832Z,36.00
2018-05-14T12:35:51.641Z,36.50
2018-05-14T12:38:18.263Z,36.50
2018-05-14T12:40:52.568Z,36.30
2018-05-14T12:43:19.203Z,36.00
2018-05-14T12:45:45.833Z,36.50
2018-05-14T12:48:12.507Z,35.70
2018-05-14T12:50:39.286Z,36.00
2018-05-14T12:53:07.088Z,36.00
2018-05-14T12:55:34.699Z,35.90
2018-05-14T12:58:01.717Z,35.90
2018-05-14T13:00:28.393Z,35.60
2018-05-14T13:02:55.022Z,35.50
2018-05-14T13:05:21.707Z,35.40
2018-05-14T13:07:48.400Z,35.70
2018-05-14T13:10:15.051Z,36.00
2018-05-14T13:12:41.754Z,35.80
2018-05-14T13:15:08.381Z,36.00
2018-05-14T13:17:35.243Z,36.50
2018-05-14T13:20:02.732Z,38.10
2018-05-14T13:22:30.099Z,37.80
2018-05-14T13:24:56.801Z,37.40
2018-05-14T13:27:23.599Z,38.10
2018-05-14T13:29:50.307Z,38.50
2018-05-14T13:32:17.669Z,38.10
2018-05-14T13:34:45.090Z,38.00
2018-05-14T13:37:12.219Z,37.90
2018-05-14T13:39:38.857Z,38.40
2018-05-14T13:42:05.645Z,37.90
2018-05-14T13:44:32.483Z,37.70
2018-05-14T13:46:59.082Z,37.70
2018-05-14T13:49:26.266Z,37.50
2018-05-14T13:51:52.899Z,37.40
2018-05-14T13:54:19.543Z,37.50
2018-05-14T13:56:47.168Z,37.70
2018-05-14T13:59:13.851Z,37.60
2018-05-14T14:01:41.226Z,37.90
2018-05-14T14:04:08.608Z,37.80
2018-05-14T14:06:35.285Z,37.80
2018-05-14T14:09:01.976Z,37.70
2018-05-14T14:11:30.220Z,37.80
2018-05-14T14:13:56.851Z,37.70
2018-05-14T14:16:24.298Z,38.00
2018-05-14T14:18:51.996Z,38.40
2018-05-14T14:21:18.625Z,38.30
2018-05-14T14:23:46.223Z,39.00
2018-05-14T14:26:12.706Z,39.00
2018-05-14T14:28:40.083Z,38.20
2018-05-14T14:31:06.895Z,37.90
2018-05-14T14:33:34.282Z,38.50
2018-05-14T14:36:01.006Z,38.50
2018-05-14T14:38:28.353Z,38.70
2018-05-14T14:40:55.027Z,38.60
2018-05-14T14:43:21.658Z,38.60
2018-05-14T14:45:48.312Z,38.80
2018-05-14T14:48:14.929Z,38.50
2018-05-14T14:50:41.866Z,37.80
2018-05-14T14:53:08.480Z,38.00
2018-05-14T14:55:35.928Z,36.80
2018-05-14T14:58:03.365Z,37.20
2018-05-14T15:00:30.185Z,36.60
2018-05-14T15:02:56.801Z,37.00
2018-05-14T15:05:23.419Z,37.40
2018-05-14T15:07:50.128Z,38.30
2018-05-14T15:10:16.781Z,38.20
2018-05-14T15:12:43.441Z,37.80
2018-05-14T15:15:10.113Z,38.00
2018-05-14T15:17:36.791Z,37.90
2018-05-14T15:20:04.277Z,39.00
2018-05-14T15:22:31.654Z,39.30
2018-05-14T15:24:58.709Z,39.30
2018-05-14T15:27:25.332Z,39.40
2018-05-14T15:29:52.070Z,39.70
2018-05-14T15:32:19.005Z,39.70
2018-05-14T15:34:45.645Z,39.80
2018-05-14T15:37:12.290Z,40.00
2018-05-14T15:39:39.354Z,40.20
2018-05-14T15:42:05.991Z,40.40
2018-05-14T15:44:32.625Z,40.30
2018-05-14T15:46:59.296Z,39.70
2018-05-14T15:49:25.962Z,40.10
2018-05-14T15:51:53.158Z,40.40
2018-05-14T15:54:19.806Z,40.30
2018-05-14T15:56:46.454Z,40.10
2018-05-14T15:59:13.149Z,39.70
2018-05-14T16:01:39.856Z,39.70
2018-05-14T16:04:07.312Z,40.00
2018-05-14T16:06:33.958Z,40.00
2018-05-14T16:09:01.347Z,39.60
2018-05-14T16:11:28.181Z,39.60
2018-05-14T16:13:54.838Z,39.70
2018-05-14T16:16:21.558Z,39.30
2018-05-14T16:18:48.193Z,39.30
2018-05-14T16:21:14.846Z,39.30
2018-05-14T16:23:41.497Z,39.30
2018-05-14T16:26:08.322Z,39.00
2018-05-14T16:28:35.049Z,38.80
2018-05-14T16:31:01.696Z,38.70
2018-05-14T16:33:28.387Z,39.10
2018-05-14T16:35:56.526Z,39.50
2018-05-14T16:38:23.184Z,39.40
2018-05-14T16:40:51.410Z,39.70
2018-05-14T16:43:18.118Z,39.60
2018-05-14T16:45:45.497Z,39.90
2018-05-14T16:48:12.155Z,39.80
2018-05-14T16:50:39.218Z,40.20
2018-05-14T16:53:05.890Z,40.30
2018-05-14T16:55:32.506Z,40.60
2018-05-14T16:57:59.204Z,40.60
2018-05-14T17:00:25.969Z,40.30
2018-05-14T17:02:52.630Z,40.40
2018-05-14T17:05:20.028Z,41.00
2018-05-14T17:07:47.040Z,40.90
2018-05-14T17:10:13.685Z,41.10
2018-05-14T17:12:40.324Z,41.30
2018-05-14T17:15:07.817Z,42.10
2018-05-14T17:17:34.452Z,41.80
2018-05-14T17:20:01.203Z,42.30
2018-05-14T17:22:28.343Z,42.60
2018-05-14T17:24:55.021Z,42.90
2018-05-14T17:27:21.659Z,43.30
2018-05-14T17:29:48.330Z,43.60
2018-05-14T17:32:15.679Z,45.20
2018-05-14T17:34:43.835Z,44.80
2018-05-14T17:37:10.477Z,44.90
2018-05-14T17:39:37.493Z,45.10
2018-05-14T17:42:04.133Z,45.50
2018-05-14T17:44:30.787Z,45.90
2018-05-14T17:46:57.515Z,46.30
2018-05-14T17:49:24.148Z,46.60
2018-05-14T17:51:50.828Z,47.00
2018-05-14T17:54:18.219Z,47.70
2018-05-14T17:56:45.036Z,47.70
2018-05-14T17:59:11.768Z,47.90
2018-05-14T18:01:39.295Z,48.40
2018-05-14T18:04:06.004Z,48.40
2018-05-14T18:06:32.629Z,48.80
2018-05-14T18:08:59.338Z,49.00
2018-05-14T18:11:25.992Z,49.50
2018-05-14T18:13:53.380Z,50.10
2018-05-14T18:16:20.007Z,50.00
2018-05-14T18:18:46.648Z,50.30
2018-05-14T18:21:15.348Z,50.60
2018-05-14T18:23:46.935Z,50.70
2018-05-14T18:28:48.858Z,51.40
2018-05-14T18:31:23.886Z,51.70
2018-05-14T18:33:53.333Z,52.50
2018-05-14T18:36:20.138Z,52.50
2018-05-14T18:38:46.792Z,52.90
2018-05-14T18:41:13.471Z,53.30
2018-05-14T18:43:41.100Z,54.00
2018-05-14T18:46:07.777Z,54.00
2018-05-14T18:48:34.434Z,54.30
2018-05-14T18:51:01.873Z,54.90
2018-05-14T18:53:28.527Z,54.80
2018-05-14T18:55:55.906Z,55.50
2018-05-14T18:58:22.733Z,55.50
2018-05-14T19:00:49.516Z,55.80
2018-05-14T19:03:16.193Z,56.10
2018-05-14T19:05:43.679Z,56.80
2018-05-14T19:08:10.314Z,56.80
2018-05-14T19:10:43.193Z,56.90
2018-05-14T19:13:09.857Z,56.90
2018-05-14T19:15:42.632Z,56.80
2018-05-14T19:18:09.318Z,56.80
2018-05-14T19:20:35.986Z,57.00
2018-05-14T19:23:08.703Z,56.90
2018-05-14T19:25:35.356Z,57.00
2018-05-14T19:28:08.263Z,57.00
2018-05-14T19:30:34.868Z,57.00
2018-05-14T19:33:03.246Z,56.90
2018-05-14T19:35:38.149Z,56.90
2018-05-14T19:38:05.218Z,57.00
2018-05-14T19:40:37.920Z,57.00
2018-05-14T19:43:05.098Z,57.00
2018-05-14T19:45:32.581Z,57.00
2018-05-14T19:47:59.214Z,57.00
2018-05-14T19:50:26.047Z,57.10
2018-05-14T19:52:52.700Z,57.10
2018-05-14T19:55:19.439Z,57.20
2018-05-14T19:57:46.127Z,57.40
2018-05-14T20:00:12.849Z,57.50
2018-05-14T20:02:39.549Z,57.80
2018-05-14T20:05:06.213Z,58.00
2018-05-14T20:07:32.886Z,58.20
2018-05-14T20:09:59.574Z,58.40
2018-05-14T20:12:26.219Z,58.70
2018-05-14T20:14:52.873Z,58.70
2018-05-14T20:17:19.535Z,58.90
2018-05-14T20:19:46.225Z,59.00
2018-05-14T20:22:12.931Z,59.30
2018-05-14T20:24:40.324Z,59.40
2018-05-14T20:27:06.963Z,59.40
2018-05-14T20:29:33.635Z,59.50
2018-05-14T20:32:00.404Z,59.60
2018-05-14T20:34:27.809Z,59.80
2018-05-14T20:36:54.414Z,59.80
2018-05-14T20:39:21.831Z,60.30
2018-05-14T20:41:48.478Z,60.30
2018-05-14T20:44:15.539Z,60.40
2018-05-14T20:46:42.974Z,60.60
2018-05-14T20:49:09.661Z,60.60
2018-05-14T20:51:36.322Z,60.50
2018-05-14T20:54:03.008Z,60.70
2018-05-14T20:56:30.421Z,61.10
2018-05-14T20:58:57.099Z,61.10
2018-05-14T21:01:24.591Z,61.10
2018-05-14T21:03:51.400Z,61.00
2018-05-14T21:06:18.040Z,61.10
2018-05-14T21:08:45.445Z,61.10
2018-05-14T21:11:12.125Z,61.10
2018-05-14T21:13:38.952Z,61.10
2018-05-14T21:16:05.659Z,61.20
2018-05-14T21:18:32.330Z,61.20
2018-05-14T21:20:59.015Z,61.30
2018-05-14T21:23:25.694Z,61.50
2018-05-14T21:25:52.604Z,61.50
2018-05-14T21:28:19.265Z,61.50
2018-05-14T21:30:45.866Z,61.60
2018-05-14T21:33:12.545Z,61.80
2018-05-14T21:35:39.256Z,61.90
2018-05-14T21:38:05.954Z,62.10
2018-05-14T21:40:32.703Z,62.20
2018-05-14T21:43:00.073Z,61.80
2018-05-14T21:45:27.690Z,62.80
2018-05-14T21:47:54.315Z,62.80
2018-05-14T21:50:21.047Z,62.90
2018-05-14T21:52:47.788Z,63.10
2018-05-14T21:55:14.395Z,63.50
2018-05-14T21:57:41.041Z,63.80
2018-05-14T22:00:08.019Z,63.90
2018-05-14T22:02:35.323Z,64.30
2018-05-14T22:05:02.755Z,64.50
2018-05-14T22:07:29.838Z,64.50
2018-05-14T22:09:56.401Z,64.70
2018-05-14T22:12:23.045Z,65.00
2018-05-14T22:14:49.712Z,65.30
2018-05-14T22:17:16.468Z,65.70
2018-05-14T22:19:43.858Z,66.60
2018-05-14T22:22:10.592Z,66.50
2018-05-14T22:24:37.290Z,67.10
2018-05-14T22:27:03.914Z,67.60
2018-05-14T22:29:31.255Z,68.90
2018-05-14T22:31:57.879Z,68.80
2018-05-14T22:34:24.934Z,69.20
2018-05-14T22:36:51.744Z,70.10
2018-05-14T22:39:18.471Z,70.00
2018-05-14T22:41:45.886Z,70.80
2018-05-14T22:44:12.514Z,70.80
2018-05-14T22:46:39.192Z,71.30
2018-05-14T22:49:06.577Z,72.50
2018-05-14T22:51:33.208Z,72.60
2018-05-14T22:53:59.955Z,72.80
2018-05-14T22:56:26.966Z,73.20
2018-05-14T22:58:54.353Z,74.30
2018-05-14T23:01:21.006Z,74.30
2018-05-14T23:03:47.803Z,74.80
2018-05-14T23:06:15.260Z,75.50
2018-05-14T23:08:42.673Z,75.90
2018-05-14T23:11:10.168Z,77.40
2018-05-14T23:13:37.591Z,77.10
2018-05-14T23:16:04.254Z,77.20
2018-05-14T23:18:31.713Z,78.10
2018-05-14T23:20:58.365Z,78.10
2018-05-14T23:23:25.741Z,79.00
2018-05-14T23:25:52.404Z,79.00
2018-05-14T23:28:19.069Z,79.30
2018-05-14T23:30:45.727Z,79.40
2018-05-14T23:33:13.139Z,79.80
2018-05-14T23:35:39.799Z,79.60
2018-05-14T23:38:06.667Z,79.60
2018-05-14T23:40:34.038Z,80.30
2018-05-14T23:43:01.435Z,80.30
2018-05-14T23:45:28.104Z,80.40
2018-05-14T23:47:55.167Z,81.20
2018-05-14T23:50:21.802Z,81.80
2018-05-14T23:52:49.291Z,82.70
2018-05-14T23:55:15.960Z,82.70
2018-05-14T23:57:42.666Z,82.90
